sensor_id;sensor_type;location;lat;lon;timestamp;P1;durP1;ratioP1;P2;durP2;ratioP2
4674;SDS011;2351;50.812;12.872;2023-02-28T00:01:31;10.73;;;3.50;;
4674;SDS011;2351;50.812;12.872;2023-02-28T00:04:03;5.47;;;3.13;;
4674;SDS011;2351;50.812;12.872;2023-02-28T00:06:35;3.40;;;2.40;;
4674;SDS011;2351;50.812;12.872;2023-02-28T00:09:09;3.03;;;2.37;;
4674;SDS011;2351;50.812;12.872;2023-02-28T00:11:40;4.53;;;2.80;;
4674;SDS011;2351;50.812;12.872;2023-02-28T00:14:12;4.70;;;3.33;;
4674;SDS011;2351;50.812;12.872;2023-02-28T00:16:44;4.00;;;2.40;;
4674;SDS011;2351;50.812;12.872;2023-02-28T00:19:15;3.80;;;2.50;;
4674;SDS011;2351;50.812;12.872;2023-02-28T00:21:47;3.77;;;2.77;;
4674;SDS011;2351;50.812;12.872;2023-02-28T00:24:20;2.77;;;2.20;;
4674;SDS011;2351;50.812;12.872;2023-02-28T00:26:52;3.40;;;2.57;;
4674;SDS011;2351;50.812;12.872;2023-02-28T00:29:24;2.93;;;2.03;;
4674;SDS011;2351;50.812;12.872;2023-02-28T00:31:55;5.17;;;3.00;;
4674;SDS011;2351;50.812;12.872;2023-02-28T00:34:27;6.00;;;2.60;;
4674;SDS011;2351;50.812;12.872;2023-02-28T00:36:59;3.30;;;2.67;;
4674;SDS011;2351;50.812;12.872;2023-02-28T00:39:32;2.40;;;2.20;;
4674;SDS011;2351;50.812;12.872;2023-02-28T00:42:06;9.57;;;2.83;;
4674;SDS011;2351;50.812;12.872;2023-02-28T00:44:38;5.78;;;2.72;;
4674;SDS011;2351;50.812;12.872;2023-02-28T00:47:09;2.77;;;2.53;;
4674;SDS011;2351;50.812;12.872;2023-02-28T00:49:41;3.60;;;2.97;;
4674;SDS011;2351;50.812;12.872;2023-02-28T00:52:13;3.70;;;2.40;;
4674;SDS011;2351;50.812;12.872;2023-02-28T00:54:46;3.83;;;2.30;;
4674;SDS011;2351;50.812;12.872;2023-02-28T00:57:18;4.50;;;2.30;;
4674;SDS011;2351;50.812;12.872;2023-02-28T00:59:49;4.67;;;2.83;;
4674;SDS011;2351;50.812;12.872;2023-02-28T01:02:24;3.33;;;2.80;;
4674;SDS011;2351;50.812;12.872;2023-02-28T01:04:55;10.77;;;2.63;;
4674;SDS011;2351;50.812;12.872;2023-02-28T01:07:28;5.77;;;3.47;;
4674;SDS011;2351;50.812;12.872;2023-02-28T01:10:01;5.20;;;3.20;;
4674;SDS011;2351;50.812;12.872;2023-02-28T01:12:32;3.30;;;2.40;;
4674;SDS011;2351;50.812;12.872;2023-02-28T01:15:04;3.60;;;2.50;;
4674;SDS011;2351;50.812;12.872;2023-02-28T01:17:37;5.10;;;2.93;;
4674;SDS011;2351;50.812;12.872;2023-02-28T01:20:09;4.13;;;3.03;;
4674;SDS011;2351;50.812;12.872;2023-02-28T01:22:41;3.57;;;2.20;;
4674;SDS011;2351;50.812;12.872;2023-02-28T01:25:15;4.97;;;2.87;;
4674;SDS011;2351;50.812;12.872;2023-02-28T01:27:47;5.40;;;2.93;;
4674;SDS011;2351;50.812;12.872;2023-02-28T01:30:18;5.23;;;2.70;;
4674;SDS011;2351;50.812;12.872;2023-02-28T01:32:50;7.10;;;3.00;;
4674;SDS011;2351;50.812;12.872;2023-02-28T01:35:23;4.67;;;2.87;;
4674;SDS011;2351;50.812;12.872;2023-02-28T01:37:55;3.50;;;2.70;;
4674;SDS011;2351;50.812;12.872;2023-02-28T01:40:28;4.00;;;2.70;;
4674;SDS011;2351;50.812;12.872;2023-02-28T01:42:59;8.63;;;3.10;;
4674;SDS011;2351;50.812;12.872;2023-02-28T01:45:31;5.80;;;2.43;;
4674;SDS011;2351;50.812;12.872;2023-02-28T01:48:07;4.37;;;2.87;;
4674;SDS011;2351;50.812;12.872;2023-02-28T01:50:41;4.70;;;2.87;;
4674;SDS011;2351;50.812;12.872;2023-02-28T01:53:17;5.33;;;3.13;;
4674;SDS011;2351;50.812;12.872;2023-02-28T01:55:54;3.90;;;3.15;;
4674;SDS011;2351;50.812;12.872;2023-02-28T01:58:26;7.25;;;3.28;;
4674;SDS011;2351;50.812;12.872;2023-02-28T02:00:58;6.18;;;3.33;;
4674;SDS011;2351;50.812;12.872;2023-02-28T02:03:30;7.82;;;3.25;;
4674;SDS011;2351;50.812;12.872;2023-02-28T02:06:02;4.15;;;2.63;;
4674;SDS011;2351;50.812;12.872;2023-02-28T02:08:34;4.47;;;2.87;;
4674;SDS011;2351;50.812;12.872;2023-02-28T02:11:09;3.88;;;2.92;;
4674;SDS011;2351;50.812;12.872;2023-02-28T02:13:55;5.38;;;2.38;;
4674;SDS011;2351;50.812;12.872;2023-02-28T02:16:42;5.30;;;3.00;;
4674;SDS011;2351;50.812;12.872;2023-02-28T02:19:33;5.95;;;3.28;;
4674;SDS011;2351;50.812;12.872;2023-02-28T02:22:21;4.32;;;3.00;;
4674;SDS011;2351;50.812;12.872;2023-02-28T02:25:11;4.60;;;3.95;;
4674;SDS011;2351;50.812;12.872;2023-02-28T02:27:59;7.10;;;2.70;;
4674;SDS011;2351;50.812;12.872;2023-02-28T02:30:58;8.65;;;3.15;;
4674;SDS011;2351;50.812;12.872;2023-02-28T02:37:07;5.30;;;2.30;;
4674;SDS011;2351;50.812;12.872;2023-02-28T02:39:47;9.20;;;3.65;;
4674;SDS011;2351;50.812;12.872;2023-02-28T02:42:25;6.13;;;2.95;;
4674;SDS011;2351;50.812;12.872;2023-02-28T02:45:01;4.90;;;3.17;;
4674;SDS011;2351;50.812;12.872;2023-02-28T02:47:38;5.18;;;3.10;;
4674;SDS011;2351;50.812;12.872;2023-02-28T02:50:14;3.45;;;2.55;;
4674;SDS011;2351;50.812;12.872;2023-02-28T02:52:52;6.13;;;2.80;;
4674;SDS011;2351;50.812;12.872;2023-02-28T02:55:27;4.60;;;3.00;;
4674;SDS011;2351;50.812;12.872;2023-02-28T02:58:02;8.52;;;3.08;;
4674;SDS011;2351;50.812;12.872;2023-02-28T03:00:37;4.78;;;2.88;;
4674;SDS011;2351;50.812;12.872;2023-02-28T03:03:13;5.68;;;2.95;;
4674;SDS011;2351;50.812;12.872;2023-02-28T03:05:49;6.90;;;2.90;;
4674;SDS011;2351;50.812;12.872;2023-02-28T03:08:23;5.70;;;3.08;;
4674;SDS011;2351;50.812;12.872;2023-02-28T03:10:55;4.78;;;3.10;;
4674;SDS011;2351;50.812;12.872;2023-02-28T03:13:42;5.70;;;3.17;;
4674;SDS011;2351;50.812;12.872;2023-02-28T03:16:28;5.35;;;3.03;;
4674;SDS011;2351;50.812;12.872;2023-02-28T03:19:19;6.25;;;3.72;;
4674;SDS011;2351;50.812;12.872;2023-02-28T03:22:05;10.05;;;4.05;;
4674;SDS011;2351;50.812;12.872;2023-02-28T03:24:48;6.57;;;3.53;;
4674;SDS011;2351;50.812;12.872;2023-02-28T03:27:27;4.95;;;3.50;;
4674;SDS011;2351;50.812;12.872;2023-02-28T03:30:03;6.57;;;3.33;;
4674;SDS011;2351;50.812;12.872;2023-02-28T03:32:40;3.88;;;3.03;;
4674;SDS011;2351;50.812;12.872;2023-02-28T03:35:21;6.75;;;4.03;;
4674;SDS011;2351;50.812;12.872;2023-02-28T03:37:58;6.43;;;3.78;;
4674;SDS011;2351;50.812;12.872;2023-02-28T03:40:34;6.28;;;3.35;;
4674;SDS011;2351;50.812;12.872;2023-02-28T03:43:10;8.27;;;3.35;;
4674;SDS011;2351;50.812;12.872;2023-02-28T03:45:46;7.53;;;3.63;;
4674;SDS011;2351;50.812;12.872;2023-02-28T03:48:22;9.75;;;4.70;;
4674;SDS011;2351;50.812;12.872;2023-02-28T03:50:58;6.15;;;3.42;;
4674;SDS011;2351;50.812;12.872;2023-02-28T03:53:34;8.05;;;4.35;;
4674;SDS011;2351;50.812;12.872;2023-02-28T03:56:09;5.57;;;3.80;;
4674;SDS011;2351;50.812;12.872;2023-02-28T03:58:47;8.55;;;3.30;;
4674;SDS011;2351;50.812;12.872;2023-02-28T04:01:26;6.53;;;3.83;;
4674;SDS011;2351;50.812;12.872;2023-02-28T04:04:01;5.40;;;3.60;;
4674;SDS011;2351;50.812;12.872;2023-02-28T04:06:34;3.90;;;3.00;;
4674;SDS011;2351;50.812;12.872;2023-02-28T04:09:08;5.72;;;3.72;;
4674;SDS011;2351;50.812;12.872;2023-02-28T04:11:42;7.85;;;4.13;;
4674;SDS011;2351;50.812;12.872;2023-02-28T04:14:15;4.38;;;3.17;;
4674;SDS011;2351;50.812;12.872;2023-02-28T04:16:47;6.68;;;3.45;;
4674;SDS011;2351;50.812;12.872;2023-02-28T04:19:20;8.33;;;4.30;;
4674;SDS011;2351;50.812;12.872;2023-02-28T04:21:52;9.18;;;4.10;;
4674;SDS011;2351;50.812;12.872;2023-02-28T04:24:27;5.88;;;4.07;;
4674;SDS011;2351;50.812;12.872;2023-02-28T04:26:59;6.18;;;3.30;;
4674;SDS011;2351;50.812;12.872;2023-02-28T04:29:31;12.43;;;5.70;;
4674;SDS011;2351;50.812;12.872;2023-02-28T04:32:03;6.72;;;3.42;;
4674;SDS011;2351;50.812;12.872;2023-02-28T04:34:35;6.03;;;4.00;;
4674;SDS011;2351;50.812;12.872;2023-02-28T04:37:07;7.85;;;4.25;;
4674;SDS011;2351;50.812;12.872;2023-02-28T04:39:40;9.65;;;4.28;;
4674;SDS011;2351;50.812;12.872;2023-02-28T04:42:13;6.57;;;3.60;;
4674;SDS011;2351;50.812;12.872;2023-02-28T04:44:44;8.90;;;4.88;;
4674;SDS011;2351;50.812;12.872;2023-02-28T04:47:17;10.00;;;4.18;;
4674;SDS011;2351;50.812;12.872;2023-02-28T04:49:48;7.85;;;4.57;;
4674;SDS011;2351;50.812;12.872;2023-02-28T04:52:20;7.32;;;4.43;;
4674;SDS011;2351;50.812;12.872;2023-02-28T04:54:53;12.57;;;6.10;;
4674;SDS011;2351;50.812;12.872;2023-02-28T04:57:25;7.10;;;4.88;;
4674;SDS011;2351;50.812;12.872;2023-02-28T04:59:57;9.93;;;5.00;;
4674;SDS011;2351;50.812;12.872;2023-02-28T05:02:28;6.57;;;4.40;;
4674;SDS011;2351;50.812;12.872;2023-02-28T05:05:00;7.37;;;4.40;;
4674;SDS011;2351;50.812;12.872;2023-02-28T05:07:32;8.98;;;4.80;;
4674;SDS011;2351;50.812;12.872;2023-02-28T05:10:05;7.93;;;4.35;;
4674;SDS011;2351;50.812;12.872;2023-02-28T05:12:37;9.75;;;4.82;;
4674;SDS011;2351;50.812;12.872;2023-02-28T05:15:10;7.22;;;5.00;;
4674;SDS011;2351;50.812;12.872;2023-02-28T05:17:44;9.77;;;5.35;;
4674;SDS011;2351;50.812;12.872;2023-02-28T05:20:16;12.27;;;5.60;;
4674;SDS011;2351;50.812;12.872;2023-02-28T05:22:49;12.30;;;4.60;;
4674;SDS011;2351;50.812;12.872;2023-02-28T05:25:24;7.53;;;4.40;;
4674;SDS011;2351;50.812;12.872;2023-02-28T05:27:59;10.70;;;5.72;;
4674;SDS011;2351;50.812;12.872;2023-02-28T05:30:30;12.07;;;5.20;;
4674;SDS011;2351;50.812;12.872;2023-02-28T05:33:02;9.32;;;5.32;;
4674;SDS011;2351;50.812;12.872;2023-02-28T05:35:34;16.73;;;5.60;;
4674;SDS011;2351;50.812;12.872;2023-02-28T05:38:09;11.35;;;5.90;;
4674;SDS011;2351;50.812;12.872;2023-02-28T05:40:42;12.57;;;6.43;;
4674;SDS011;2351;50.812;12.872;2023-02-28T05:43:14;11.38;;;5.82;;
4674;SDS011;2351;50.812;12.872;2023-02-28T05:45:45;13.50;;;6.80;;
4674;SDS011;2351;50.812;12.872;2023-02-28T05:48:17;12.23;;;5.85;;
4674;SDS011;2351;50.812;12.872;2023-02-28T05:50:49;31.58;;;6.40;;
4674;SDS011;2351;50.812;12.872;2023-02-28T05:53:21;9.43;;;5.78;;
4674;SDS011;2351;50.812;12.872;2023-02-28T05:55:54;13.77;;;6.88;;
4674;SDS011;2351;50.812;12.872;2023-02-28T05:58:26;16.70;;;7.25;;
4674;SDS011;2351;50.812;12.872;2023-02-28T06:01:11;13.70;;;6.30;;
4674;SDS011;2351;50.812;12.872;2023-02-28T06:03:51;12.02;;;5.93;;
4674;SDS011;2351;50.812;12.872;2023-02-28T06:06:23;11.88;;;5.63;;
4674;SDS011;2351;50.812;12.872;2023-02-28T06:08:55;16.40;;;6.43;;
4674;SDS011;2351;50.812;12.872;2023-02-28T06:11:28;13.95;;;6.13;;
4674;SDS011;2351;50.812;12.872;2023-02-28T06:14:00;15.88;;;7.88;;
4674;SDS011;2351;50.812;12.872;2023-02-28T06:16:32;13.23;;;6.70;;
4674;SDS011;2351;50.812;12.872;2023-02-28T06:19:05;12.90;;;6.28;;
4674;SDS011;2351;50.812;12.872;2023-02-28T06:21:37;15.48;;;6.57;;
4674;SDS011;2351;50.812;12.872;2023-02-28T06:24:09;14.07;;;6.47;;
4674;SDS011;2351;50.812;12.872;2023-02-28T06:26:43;15.23;;;7.15;;
4674;SDS011;2351;50.812;12.872;2023-02-28T06:29:14;18.13;;;8.48;;
4674;SDS011;2351;50.812;12.872;2023-02-28T06:31:48;15.70;;;8.27;;
4674;SDS011;2351;50.812;12.872;2023-02-28T06:34:20;16.63;;;8.47;;
4674;SDS011;2351;50.812;12.872;2023-02-28T06:36:52;28.07;;;10.10;;
4674;SDS011;2351;50.812;12.872;2023-02-28T06:39:23;14.57;;;7.93;;
4674;SDS011;2351;50.812;12.872;2023-02-28T06:41:56;17.57;;;9.17;;
4674;SDS011;2351;50.812;12.872;2023-02-28T06:44:28;11.90;;;6.67;;
4674;SDS011;2351;50.812;12.872;2023-02-28T06:47:05;14.17;;;7.43;;
4674;SDS011;2351;50.812;12.872;2023-02-28T06:49:37;13.10;;;7.20;;
4674;SDS011;2351;50.812;12.872;2023-02-28T06:52:09;11.03;;;6.40;;
4674;SDS011;2351;50.812;12.872;2023-02-28T06:54:41;12.07;;;7.10;;
4674;SDS011;2351;50.812;12.872;2023-02-28T06:57:14;9.73;;;6.40;;
4674;SDS011;2351;50.812;12.872;2023-02-28T06:59:45;15.20;;;8.47;;
4674;SDS011;2351;50.812;12.872;2023-02-28T07:02:17;11.23;;;6.40;;
4674;SDS011;2351;50.812;12.872;2023-02-28T07:04:49;15.50;;;7.07;;
4674;SDS011;2351;50.812;12.872;2023-02-28T07:07:20;12.70;;;6.13;;
4674;SDS011;2351;50.812;12.872;2023-02-28T07:09:52;15.03;;;7.83;;
4674;SDS011;2351;50.812;12.872;2023-02-28T07:12:25;14.00;;;6.90;;
4674;SDS011;2351;50.812;12.872;2023-02-28T07:14:57;13.50;;;7.43;;
4674;SDS011;2351;50.812;12.872;2023-02-28T07:17:28;10.77;;;6.90;;
4674;SDS011;2351;50.812;12.872;2023-02-28T07:20:00;14.43;;;7.20;;
4674;SDS011;2351;50.812;12.872;2023-02-28T07:22:34;11.90;;;6.50;;
4674;SDS011;2351;50.812;12.872;2023-02-28T07:25:06;14.03;;;7.17;;
4674;SDS011;2351;50.812;12.872;2023-02-28T07:27:40;11.33;;;6.73;;
4674;SDS011;2351;50.812;12.872;2023-02-28T07:30:12;14.70;;;7.07;;
4674;SDS011;2351;50.812;12.872;2023-02-28T07:32:44;14.43;;;7.60;;
4674;SDS011;2351;50.812;12.872;2023-02-28T07:35:16;13.93;;;7.00;;
4674;SDS011;2351;50.812;12.872;2023-02-28T07:37:48;18.10;;;7.90;;
4674;SDS011;2351;50.812;12.872;2023-02-28T07:40:20;11.83;;;6.47;;
4674;SDS011;2351;50.812;12.872;2023-02-28T07:42:53;14.00;;;6.80;;
4674;SDS011;2351;50.812;12.872;2023-02-28T07:45:24;12.17;;;6.90;;
4674;SDS011;2351;50.812;12.872;2023-02-28T07:47:56;11.67;;;6.83;;
4674;SDS011;2351;50.812;12.872;2023-02-28T07:50:28;11.13;;;6.37;;
4674;SDS011;2351;50.812;12.872;2023-02-28T07:53:00;15.10;;;6.67;;
4674;SDS011;2351;50.812;12.872;2023-02-28T07:55:32;12.80;;;6.37;;
4674;SDS011;2351;50.812;12.872;2023-02-28T07:58:06;10.40;;;6.23;;
4674;SDS011;2351;50.812;12.872;2023-02-28T08:00:38;14.93;;;6.47;;
4674;SDS011;2351;50.812;12.872;2023-02-28T08:03:10;15.80;;;7.57;;
4674;SDS011;2351;50.812;12.872;2023-02-28T08:05:43;13.40;;;5.70;;
4674;SDS011;2351;50.812;12.872;2023-02-28T08:08:14;11.20;;;6.33;;
4674;SDS011;2351;50.812;12.872;2023-02-28T08:10:46;8.57;;;5.50;;
4674;SDS011;2351;50.812;12.872;2023-02-28T08:13:19;10.57;;;5.33;;
4674;SDS011;2351;50.812;12.872;2023-02-28T08:15:51;8.40;;;5.20;;
4674;SDS011;2351;50.812;12.872;2023-02-28T08:18:23;12.80;;;6.30;;
4674;SDS011;2351;50.812;12.872;2023-02-28T08:20:55;10.53;;;5.03;;
4674;SDS011;2351;50.812;12.872;2023-02-28T08:23:27;13.60;;;5.10;;
4674;SDS011;2351;50.812;12.872;2023-02-28T08:25:59;8.10;;;4.43;;
4674;SDS011;2351;50.812;12.872;2023-02-28T08:28:32;9.17;;;5.20;;
4674;SDS011;2351;50.812;12.872;2023-02-28T08:31:06;8.90;;;4.77;;
4674;SDS011;2351;50.812;12.872;2023-02-28T08:33:39;15.33;;;5.10;;
4674;SDS011;2351;50.812;12.872;2023-02-28T08:36:11;9.30;;;4.90;;
4674;SDS011;2351;50.812;12.872;2023-02-28T08:38:43;10.07;;;5.23;;
4674;SDS011;2351;50.812;12.872;2023-02-28T08:41:16;8.77;;;4.70;;
4674;SDS011;2351;50.812;12.872;2023-02-28T08:43:49;10.20;;;5.30;;
4674;SDS011;2351;50.812;12.872;2023-02-28T08:46:21;6.80;;;4.33;;
4674;SDS011;2351;50.812;12.872;2023-02-28T08:48:52;10.20;;;5.47;;
4674;SDS011;2351;50.812;12.872;2023-02-28T08:51:25;5.87;;;4.33;;
4674;SDS011;2351;50.812;12.872;2023-02-28T08:53:58;8.63;;;5.20;;
4674;SDS011;2351;50.812;12.872;2023-02-28T08:56:31;11.13;;;4.60;;
4674;SDS011;2351;50.812;12.872;2023-02-28T08:59:04;26.27;;;11.17;;
4674;SDS011;2351;50.812;12.872;2023-02-28T09:01:35;10.23;;;4.90;;
4674;SDS011;2351;50.812;12.872;2023-02-28T09:04:07;11.53;;;4.97;;
4674;SDS011;2351;50.812;12.872;2023-02-28T09:06:40;6.80;;;4.40;;
4674;SDS011;2351;50.812;12.872;2023-02-28T09:09:12;12.23;;;5.00;;
4674;SDS011;2351;50.812;12.872;2023-02-28T09:11:44;6.10;;;3.90;;
4674;SDS011;2351;50.812;12.872;2023-02-28T09:14:17;14.17;;;4.30;;
4674;SDS011;2351;50.812;12.872;2023-02-28T09:16:49;12.80;;;4.60;;
4674;SDS011;2351;50.812;12.872;2023-02-28T09:19:21;8.90;;;4.77;;
4674;SDS011;2351;50.812;12.872;2023-02-28T09:21:53;5.77;;;3.97;;
4674;SDS011;2351;50.812;12.872;2023-02-28T09:24:25;8.50;;;5.03;;
4674;SDS011;2351;50.812;12.872;2023-02-28T09:26:56;13.57;;;5.60;;
4674;SDS011;2351;50.812;12.872;2023-02-28T09:29:30;15.57;;;5.20;;
4674;SDS011;2351;50.812;12.872;2023-02-28T09:32:02;8.30;;;4.80;;
4674;SDS011;2351;50.812;12.872;2023-02-28T09:34:35;12.80;;;4.10;;
4674;SDS011;2351;50.812;12.872;2023-02-28T09:37:07;9.63;;;5.60;;
4674;SDS011;2351;50.812;12.872;2023-02-28T09:39:39;18.90;;;5.70;;
4674;SDS011;2351;50.812;12.872;2023-02-28T09:42:13;9.33;;;5.50;;
4674;SDS011;2351;50.812;12.872;2023-02-28T09:45:02;8.43;;;4.40;;
4674;SDS011;2351;50.812;12.872;2023-02-28T09:47:42;11.17;;;5.33;;
4674;SDS011;2351;50.812;12.872;2023-02-28T09:50:21;8.37;;;4.10;;
4674;SDS011;2351;50.812;12.872;2023-02-28T09:53:04;9.60;;;5.23;;
4674;SDS011;2351;50.812;12.872;2023-02-28T09:55:42;5.90;;;3.83;;
4674;SDS011;2351;50.812;12.872;2023-02-28T09:58:20;4.77;;;3.80;;
4674;SDS011;2351;50.812;12.872;2023-02-28T10:00:59;15.97;;;5.00;;
4674;SDS011;2351;50.812;12.872;2023-02-28T10:03:39;11.97;;;4.27;;
4674;SDS011;2351;50.812;12.872;2023-02-28T10:06:14;10.03;;;5.40;;
4674;SDS011;2351;50.812;12.872;2023-02-28T10:08:50;15.93;;;4.50;;
4674;SDS011;2351;50.812;12.872;2023-02-28T10:11:29;8.30;;;4.47;;
4674;SDS011;2351;50.812;12.872;2023-02-28T10:14:04;6.97;;;4.43;;
4674;SDS011;2351;50.812;12.872;2023-02-28T10:16:44;9.67;;;4.43;;
4674;SDS011;2351;50.812;12.872;2023-02-28T10:19:22;10.80;;;4.50;;
4674;SDS011;2351;50.812;12.872;2023-02-28T10:22:03;9.93;;;4.90;;
4674;SDS011;2351;50.812;12.872;2023-02-28T10:24:38;8.63;;;4.80;;
4674;SDS011;2351;50.812;12.872;2023-02-28T10:27:14;12.77;;;5.27;;
4674;SDS011;2351;50.812;12.872;2023-02-28T10:29:48;8.63;;;4.83;;
4674;SDS011;2351;50.812;12.872;2023-02-28T10:32:23;9.83;;;5.10;;
4674;SDS011;2351;50.812;12.872;2023-02-28T10:34:59;8.97;;;4.97;;
4674;SDS011;2351;50.812;12.872;2023-02-28T10:37:32;10.17;;;5.33;;
4674;SDS011;2351;50.812;12.872;2023-02-28T10:40:11;10.87;;;5.73;;
4674;SDS011;2351;50.812;12.872;2023-02-28T10:43:00;17.40;;;6.17;;
4674;SDS011;2351;50.812;12.872;2023-02-28T10:45:33;10.80;;;4.50;;
4674;SDS011;2351;50.812;12.872;2023-02-28T10:48:25;7.90;;;4.50;;
4674;SDS011;2351;50.812;12.872;2023-02-28T10:51:04;8.80;;;4.57;;
4674;SDS011;2351;50.812;12.872;2023-02-28T10:53:39;10.20;;;5.60;;
4674;SDS011;2351;50.812;12.872;2023-02-28T10:56:19;10.67;;;5.50;;
4674;SDS011;2351;50.812;12.872;2023-02-28T10:58:53;12.40;;;5.90;;
4674;SDS011;2351;50.812;12.872;2023-02-28T11:01:34;10.60;;;5.10;;
4674;SDS011;2351;50.812;12.872;2023-02-28T11:04:19;11.60;;;5.30;;
4674;SDS011;2351;50.812;12.872;2023-02-28T11:07:03;12.03;;;5.37;;
4674;SDS011;2351;50.812;12.872;2023-02-28T11:09:38;12.63;;;5.50;;
4674;SDS011;2351;50.812;12.872;2023-02-28T11:12:19;10.53;;;5.43;;
4674;SDS011;2351;50.812;12.872;2023-02-28T11:14:53;9.33;;;5.50;;
4674;SDS011;2351;50.812;12.872;2023-02-28T11:17:28;10.40;;;5.50;;
4674;SDS011;2351;50.812;12.872;2023-02-28T11:20:04;12.10;;;5.60;;
4674;SDS011;2351;50.812;12.872;2023-02-28T11:22:39;19.10;;;6.47;;
4674;SDS011;2351;50.812;12.872;2023-02-28T11:25:19;11.17;;;5.03;;
4674;SDS011;2351;50.812;12.872;2023-02-28T11:27:54;13.97;;;5.20;;
4674;SDS011;2351;50.812;12.872;2023-02-28T11:30:29;15.53;;;5.20;;
4674;SDS011;2351;50.812;12.872;2023-02-28T11:33:18;8.60;;;5.67;;
4674;SDS011;2351;50.812;12.872;2023-02-28T11:35:57;13.40;;;5.57;;
4674;SDS011;2351;50.812;12.872;2023-02-28T11:38:31;13.50;;;5.03;;
4674;SDS011;2351;50.812;12.872;2023-02-28T11:41:10;13.73;;;5.93;;
4674;SDS011;2351;50.812;12.872;2023-02-28T11:43:57;16.50;;;5.50;;
4674;SDS011;2351;50.812;12.872;2023-02-28T11:46:38;10.97;;;5.17;;
4674;SDS011;2351;50.812;12.872;2023-02-28T11:49:22;13.53;;;6.33;;
4674;SDS011;2351;50.812;12.872;2023-02-28T11:52:05;8.97;;;5.70;;
4674;SDS011;2351;50.812;12.872;2023-02-28T11:54:50;8.03;;;4.57;;
4674;SDS011;2351;50.812;12.872;2023-02-28T11:57:36;9.73;;;5.50;;
4674;SDS011;2351;50.812;12.872;2023-02-28T12:00:28;15.30;;;6.43;;
4674;SDS011;2351;50.812;12.872;2023-02-28T12:03:14;15.27;;;5.80;;
4674;SDS011;2351;50.812;12.872;2023-02-28T12:05:54;11.00;;;5.27;;
4674;SDS011;2351;50.812;12.872;2023-02-28T12:08:43;8.67;;;5.20;;
4674;SDS011;2351;50.812;12.872;2023-02-28T12:11:25;9.60;;;5.40;;
4674;SDS011;2351;50.812;12.872;2023-02-28T12:14:14;9.07;;;4.87;;
4674;SDS011;2351;50.812;12.872;2023-02-28T12:16:59;10.17;;;5.87;;
4674;SDS011;2351;50.812;12.872;2023-02-28T12:19:38;11.90;;;5.63;;
4674;SDS011;2351;50.812;12.872;2023-02-28T12:22:21;8.00;;;5.00;;
4674;SDS011;2351;50.812;12.872;2023-02-28T12:28:17;12.10;;;5.93;;
4674;SDS011;2351;50.812;12.872;2023-02-28T12:30:54;14.80;;;6.60;;
4674;SDS011;2351;50.812;12.872;2023-02-28T12:33:31;11.20;;;5.63;;
4674;SDS011;2351;50.812;12.872;2023-02-28T12:36:07;10.80;;;5.30;;
4674;SDS011;2351;50.812;12.872;2023-02-28T12:38:43;15.13;;;5.47;;
4674;SDS011;2351;50.812;12.872;2023-02-28T12:41:21;9.63;;;5.00;;
4674;SDS011;2351;50.812;12.872;2023-02-28T12:44:00;8.63;;;4.70;;
4674;SDS011;2351;50.812;12.872;2023-02-28T12:46:36;7.37;;;4.50;;
4674;SDS011;2351;50.812;12.872;2023-02-28T12:49:13;11.00;;;5.37;;
4674;SDS011;2351;50.812;12.872;2023-02-28T12:51:47;9.30;;;5.20;;
4674;SDS011;2351;50.812;12.872;2023-02-28T12:54:22;10.00;;;5.20;;
4674;SDS011;2351;50.812;12.872;2023-02-28T12:57:00;12.60;;;5.47;;
4674;SDS011;2351;50.812;12.872;2023-02-28T12:59:38;11.57;;;5.63;;
4674;SDS011;2351;50.812;12.872;2023-02-28T13:02:18;9.20;;;4.87;;
4674;SDS011;2351;50.812;12.872;2023-02-28T13:11:40;12.10;;;4.83;;
4674;SDS011;2351;50.812;12.872;2023-02-28T13:14:24;15.03;;;7.43;;
4674;SDS011;2351;50.812;12.872;2023-02-28T13:17:02;13.43;;;6.20;;
4674;SDS011;2351;50.812;12.872;2023-02-28T13:19:42;12.77;;;5.20;;
4674;SDS011;2351;50.812;12.872;2023-02-28T13:22:19;10.10;;;4.60;;
4674;SDS011;2351;50.812;12.872;2023-02-28T13:35:11;12.93;;;5.70;;
4674;SDS011;2351;50.812;12.872;2023-02-28T13:38:13;11.17;;;5.10;;
4674;SDS011;2351;50.812;12.872;2023-02-28T13:40:48;10.30;;;6.10;;
4674;SDS011;2351;50.812;12.872;2023-02-28T13:43:20;10.00;;;5.00;;
4674;SDS011;2351;50.812;12.872;2023-02-28T13:46:11;10.87;;;4.87;;
4674;SDS011;2351;50.812;12.872;2023-02-28T13:48:44;11.63;;;6.93;;
4674;SDS011;2351;50.812;12.872;2023-02-28T13:51:35;11.60;;;5.70;;
4674;SDS011;2351;50.812;12.872;2023-02-28T13:54:18;13.37;;;5.27;;
4674;SDS011;2351;50.812;12.872;2023-02-28T13:57:11;12.40;;;5.13;;
4674;SDS011;2351;50.812;12.872;2023-02-28T14:00:00;12.50;;;6.07;;
4674;SDS011;2351;50.812;12.872;2023-02-28T14:05:38;11.57;;;6.23;;
4674;SDS011;2351;50.812;12.872;2023-02-28T14:08:13;13.13;;;6.10;;
4674;SDS011;2351;50.812;12.872;2023-02-28T14:10:51;10.20;;;5.10;;
4674;SDS011;2351;50.812;12.872;2023-02-28T14:13:39;17.80;;;7.60;;
4674;SDS011;2351;50.812;12.872;2023-02-28T14:16:16;11.70;;;5.53;;
4674;SDS011;2351;50.812;12.872;2023-02-28T14:18:51;11.70;;;6.40;;
4674;SDS011;2351;50.812;12.872;2023-02-28T14:21:29;14.57;;;6.70;;
4674;SDS011;2351;50.812;12.872;2023-02-28T14:27:21;11.13;;;6.20;;
4674;SDS011;2351;50.812;12.872;2023-02-28T14:33:18;11.27;;;6.73;;
4674;SDS011;2351;50.812;12.872;2023-02-28T14:36:01;12.30;;;6.73;;
4674;SDS011;2351;50.812;12.872;2023-02-28T14:38:40;17.67;;;7.60;;
4674;SDS011;2351;50.812;12.872;2023-02-28T14:41:17;13.13;;;7.00;;
4674;SDS011;2351;50.812;12.872;2023-02-28T14:43:53;9.80;;;5.77;;
4674;SDS011;2351;50.812;12.872;2023-02-28T14:46:30;11.37;;;6.60;;
4674;SDS011;2351;50.812;12.872;2023-02-28T14:49:07;13.27;;;6.57;;
4674;SDS011;2351;50.812;12.872;2023-02-28T14:51:48;10.23;;;5.97;;
4674;SDS011;2351;50.812;12.872;2023-02-28T14:54:21;10.30;;;6.20;;
4674;SDS011;2351;50.812;12.872;2023-02-28T14:56:56;19.53;;;7.23;;
4674;SDS011;2351;50.812;12.872;2023-02-28T14:59:28;11.70;;;6.50;;
4674;SDS011;2351;50.812;12.872;2023-02-28T15:02:17;14.73;;;7.80;;
4674;SDS011;2351;50.812;12.872;2023-02-28T15:04:54;12.00;;;6.83;;
4674;SDS011;2351;50.812;12.872;2023-02-28T15:07:27;13.40;;;7.03;;
4674;SDS011;2351;50.812;12.872;2023-02-28T15:10:10;12.20;;;6.93;;
4674;SDS011;2351;50.812;12.872;2023-02-28T15:12:54;13.07;;;6.50;;
4674;SDS011;2351;50.812;12.872;2023-02-28T15:15:32;20.53;;;7.00;;
4674;SDS011;2351;50.812;12.872;2023-02-28T15:18:16;15.17;;;7.17;;
4674;SDS011;2351;50.812;12.872;2023-02-28T15:20:55;13.00;;;6.90;;
4674;SDS011;2351;50.812;12.872;2023-02-28T15:23:28;13.73;;;6.73;;
4674;SDS011;2351;50.812;12.872;2023-02-28T15:26:01;10.03;;;6.67;;
4674;SDS011;2351;50.812;12.872;2023-02-28T15:28:35;12.87;;;6.57;;
4674;SDS011;2351;50.812;12.872;2023-02-28T15:31:17;14.63;;;7.23;;
4674;SDS011;2351;50.812;12.872;2023-02-28T15:33:53;16.27;;;6.83;;
4674;SDS011;2351;50.812;12.872;2023-02-28T15:36:28;10.90;;;6.60;;
4674;SDS011;2351;50.812;12.872;2023-02-28T15:39:02;14.27;;;6.80;;
4674;SDS011;2351;50.812;12.872;2023-02-28T15:41:49;25.67;;;10.90;;
4674;SDS011;2351;50.812;12.872;2023-02-28T15:44:26;19.40;;;9.10;;
4674;SDS011;2351;50.812;12.872;2023-02-28T15:47:00;21.07;;;10.17;;
4674;SDS011;2351;50.812;12.872;2023-02-28T15:49:36;26.67;;;10.20;;
4674;SDS011;2351;50.812;12.872;2023-02-28T15:52:13;13.57;;;7.87;;
4674;SDS011;2351;50.812;12.872;2023-02-28T15:54:47;12.83;;;8.37;;
4674;SDS011;2351;50.812;12.872;2023-02-28T15:57:20;12.60;;;6.70;;
4674;SDS011;2351;50.812;12.872;2023-02-28T15:59:57;14.17;;;8.30;;
4674;SDS011;2351;50.812;12.872;2023-02-28T16:02:34;15.63;;;8.20;;
4674;SDS011;2351;50.812;12.872;2023-02-28T16:05:18;21.13;;;9.90;;
4674;SDS011;2351;50.812;12.872;2023-02-28T16:07:58;30.90;;;9.90;;
4674;SDS011;2351;50.812;12.872;2023-02-28T16:10:31;53.90;;;12.80;;
4674;SDS011;2351;50.812;12.872;2023-02-28T16:13:03;23.17;;;9.40;;
4674;SDS011;2351;50.812;12.872;2023-02-28T16:15:37;20.53;;;9.00;;
4674;SDS011;2351;50.812;12.872;2023-02-28T16:18:13;19.20;;;8.80;;